Time;durP1;ratioP1;P1;durP2;ratioP2;P2;SDS_P1;SDS_P2;PMS_P1;PMS_P2;Temp;Humidity;BMP_temperature;BMP_pressure;BME280_temperature;BME280_humidity;BME280_pressure;Samples;Min_cycle;Max_cycle;Signal;HPM_P1;HPM_P2
2023/01/09 00:01:19;;;;;;;8.75;4.80;;;;;;;2.22;100.00;93885.53;4991503;28;20074;-77
2023/01/09 00:03:45;;;;;;;9.80;5.00;;;;;;;2.25;100.00;93890.22;4989585;28;20046;-77
2023/01/09 00:06:10;;;;;;;8.55;4.93;;;;;;;2.34;100.00;93892.31;4980889;28;20043;-75
2023/01/09 00:08:37;;;;;;;7.60;4.40;;;;;;;2.39;100.00;93897.53;4987709;28;20109;-75
2023/01/09 00:11:02;;;;;;;7.82;4.45;;;;;;;2.49;100.00;93918.31;4975737;28;20070;-74
2023/01/09 00:13:28;;;;;;;8.38;4.63;;;;;;;2.56;100.00;93918.84;4987678;28;20038;-75
2023/01/09 00:15:53;;;;;;;8.27;4.40;;;;;;;2.57;100.00;93925.59;4984573;28;20419;-76
2023/01/09 00:18:19;;;;;;;9.27;4.30;;;;;;;2.60;100.00;93930.28;4984095;28;20066;-75
2023/01/09 00:20:44;;;;;;;10.73;4.88;;;;;;;2.62;100.00;93926.66;4980953;28;20560;-75
2023/01/09 00:23:10;;;;;;;7.63;4.57;;;;;;;2.63;100.00;93928.19;4983654;28;20126;-76
2023/01/09 00:25:36;;;;;;;7.55;4.68;;;;;;;2.71;100.00;93931.06;4986599;28;20085;-76
2023/01/09 00:28:01;;;;;;;9.40;4.43;;;;;;;2.76;100.00;93927.72;4982186;28;20049;-76
2023/01/09 00:30:27;;;;;;;8.77;4.70;;;;;;;2.76;100.00;93922.50;4980884;28;20049;-76
2023/01/09 00:32:54;;;;;;;9.68;4.07;;;;;;;2.86;100.00;93926.91;4973630;28;20042;-76
2023/01/09 00:35:22;;;;;;;8.13;4.38;;;;;;;2.94;100.00;93942.78;4984166;28;20054;-76
2023/01/09 00:37:48;;;;;;;6.97;3.85;;;;;;;3.02;100.00;93935.53;4984011;28;20043;-76
2023/01/09 00:40:16;;;;;;;7.85;4.10;;;;;;;3.07;100.00;93943.28;4982624;28;20054;-76
2023/01/09 00:42:45;;;;;;;7.88;4.50;;;;;;;3.08;100.00;93935.25;4977361;28;20061;-76
2023/01/09 00:45:17;;;;;;;6.90;3.60;;;;;;;3.28;100.00;93929.25;4968481;28;20034;-76
2023/01/09 00:47:48;;;;;;;6.90;3.65;;;;;;;3.34;100.00;93929.25;4960408;28;20047;-75
2023/01/09 00:50:22;;;;;;;6.90;3.75;;;;;;;3.38;100.00;93928.47;4983509;28;20488;-76
2023/01/09 00:52:50;;;;;;;7.70;4.07;;;;;;;3.43;100.00;93923.25;4974035;28;20094;-76
2023/01/09 00:55:16;;;;;;;7.00;3.80;;;;;;;3.41;100.00;93924.56;4989631;28;20046;-76
2023/01/09 00:57:42;;;;;;;8.60;3.83;;;;;;;3.56;100.00;93940.16;4983061;28;20050;-76
2023/01/09 01:00:09;;;;;;;7.47;3.92;;;;;;;3.44;100.00;93926.63;4977536;28;20050;-76
2023/01/09 01:02:34;;;;;;;6.90;3.67;;;;;;;3.40;100.00;93928.97;4962332;28;20151;-75
2023/01/09 01:07:44;;;;;;;6.90;3.63;;;;;;;3.41;100.00;93917.53;4984852;28;20038;-75
2023/01/09 01:10:15;;;;;;;8.95;3.75;;;;;;;3.39;100.00;93924.03;4985790;28;20049;-76
2023/01/09 01:12:42;;;;;;;8.73;3.95;;;;;;;3.45;100.00;93920.41;4984087;28;20046;-76
2023/01/09 01:15:07;;;;;;;7.90;3.78;;;;;;;3.36;100.00;93919.34;4975990;28;20070;-75
2023/01/09 01:17:35;;;;;;;8.35;4.07;;;;;;;3.28;100.00;93921.44;4981668;28;20050;-75
2023/01/09 01:20:00;;;;;;;7.03;3.63;;;;;;;3.24;100.00;93917.81;4983930;28;20045;-76
2023/01/09 01:22:26;;;;;;;7.40;3.85;;;;;;;3.22;100.00;93917.31;4962920;28;20042;-76
2023/01/09 01:24:51;;;;;;;10.25;4.50;;;;;;;3.14;100.00;93906.66;4967489;28;20046;-76
2023/01/09 01:27:17;;;;;;;9.30;4.15;;;;;;;3.08;100.00;93913.69;4980141;28;20789;-76
2023/01/09 01:29:42;;;;;;;6.82;4.07;;;;;;;3.04;100.00;93910.03;4982556;28;20054;-76
2023/01/09 01:32:08;;;;;;;8.30;4.15;;;;;;;2.92;100.00;93900.69;4988349;28;20066;-76
2023/01/09 01:34:33;;;;;;;11.05;4.03;;;;;;;2.95;100.00;93900.16;4955551;28;20038;-76
2023/01/09 01:36:59;;;;;;;6.28;3.83;;;;;;;2.88;100.00;93897.03;4984088;28;20073;-75
2023/01/09 01:39:25;;;;;;;6.65;3.72;;;;;;;2.88;100.00;93915.22;4987301;28;20101;-76
2023/01/09 01:41:50;;;;;;;7.47;4.15;;;;;;;2.88;100.00;93912.63;4984962;28;20046;-75
2023/01/09 01:44:53;;;;;;;7.35;3.85;;;;;;;2.90;100.00;93913.16;4977200;28;20046;-76
2023/01/09 01:47:22;;;;;;;8.07;4.15;;;;;;;2.88;100.00;93914.47;4962486;28;20050;-76
2023/01/09 01:49:48;;;;;;;7.40;4.00;;;;;;;2.91;100.00;93909.50;4987555;28;20039;-76
2023/01/09 01:52:14;;;;;;;8.45;4.25;;;;;;;2.87;100.00;93903.25;4978122;28;20050;-75
2023/01/09 01:54:40;;;;;;;7.68;4.10;;;;;;;2.74;100.00;93914.19;4980216;28;20514;-76
2023/01/09 01:57:06;;;;;;;9.50;4.10;;;;;;;2.75;100.00;93905.34;4979950;28;20746;-76
2023/01/09 01:59:37;;;;;;;7.45;3.88;;;;;;;2.73;100.00;93897.03;4980669;28;20101;-76
2023/01/09 02:02:03;;;;;;;6.95;4.00;;;;;;;2.58;100.00;93901.16;4983485;28;20042;-76
2023/01/09 02:04:33;;;;;;;7.00;3.65;;;;;;;2.54;100.00;93894.97;4986166;28;20644;-76
2023/01/09 02:07:03;;;;;;;6.63;3.95;;;;;;;2.57;100.00;93896.25;4984527;28;20563;-76
2023/01/09 02:09:30;;;;;;;7.95;4.35;;;;;;;2.60;100.00;93904.31;4982899;28;20068;-76
2023/01/09 02:11:57;;;;;;;7.55;4.10;;;;;;;2.54;100.00;93909.75;4989108;28;20515;-76
2023/01/09 02:14:26;;;;;;;8.30;4.25;;;;;;;2.47;100.00;93909.22;4961580;28;20068;-76
2023/01/09 02:16:55;;;;;;;7.35;4.10;;;;;;;2.53;100.00;93919.38;4977904;28;20097;-76
2023/01/09 02:19:53;;;;;;;8.05;4.15;;;;;;;2.57;100.00;93919.63;4984807;28;20045;-76
2023/01/09 02:22:36;;;;;;;10.02;3.92;;;;;;;2.48;100.00;93927.13;4980270;28;20515;-76
2023/01/09 02:25:48;;;;;;;8.73;4.10;;;;;;;2.52;100.00;93917.78;4984156;28;20049;-76
2023/01/09 02:28:39;;;;;;;8.48;3.92;;;;;;;2.49;100.00;93913.13;4964422;28;20047;-76
2023/01/09 02:31:29;;;;;;;6.97;4.22;;;;;;;2.52;100.00;93928.19;4980293;28;20125;-75
2023/01/09 02:34:06;;;;;;;24.05;4.30;;;;;;;2.63;100.00;93923.00;4980095;28;20045;-76
2023/01/09 02:36:51;;;;;;;6.97;3.72;;;;;;;2.62;100.00;93911.84;4977135;28;20046;-76
2023/01/09 02:39:30;;;;;;;8.32;4.07;;;;;;;2.70;100.00;93919.13;4981825;28;20053;-76
2023/01/09 02:42:02;;;;;;;9.02;4.00;;;;;;;2.78;100.00;93915.22;4966239;28;20038;-76
2023/01/09 02:44:31;;;;;;;8.02;4.03;;;;;;;2.84;100.00;93924.56;4986784;28;20440;-76
2023/01/09 02:47:02;;;;;;;6.90;3.75;;;;;;;2.91;100.00;93917.31;4975122;28;20042;-76
2023/01/09 02:49:29;;;;;;;12.23;4.75;;;;;;;2.90;100.00;93902.78;4988834;28;20045;-76
2023/01/09 02:52:22;;;;;;;7.88;4.03;;;;;;;2.81;100.00;93891.31;4970906;28;20042;-75
2023/01/09 02:55:00;;;;;;;9.85;4.13;;;;;;;2.65;100.00;93894.97;4969441;28;20065;-76
2023/01/09 02:57:29;;;;;;;7.97;4.00;;;;;;;2.68;100.00;93889.25;4983682;28;20046;-76
2023/01/09 03:00:13;;;;;;;9.50;4.70;;;;;;;2.66;100.00;93897.31;4987646;28;20049;-76
2023/01/09 03:02:47;;;;;;;11.10;5.00;;;;;;;2.66;100.00;93899.09;4989552;28;20069;-75
2023/01/09 03:05:23;;;;;;;7.95;4.38;;;;;;;2.56;100.00;93910.28;4991681;28;20405;-76
2023/01/09 03:07:55;;;;;;;7.85;4.43;;;;;;;2.62;100.00;93891.06;4997559;28;20038;-76
2023/01/09 03:10:40;;;;;;;10.55;4.72;;;;;;;2.56;100.00;93892.88;4993413;28;20108;-76
2023/01/09 03:13:10;;;;;;;7.13;4.05;;;;;;;2.63;100.00;93891.84;4971146;28;20113;-76
2023/01/09 03:15:39;;;;;;;8.52;4.88;;;;;;;2.60;100.00;93899.13;4983559;28;20038;-76
2023/01/09 03:18:08;;;;;;;8.70;4.75;;;;;;;2.62;100.00;93908.47;4965471;28;20508;-76
2023/01/09 03:20:35;;;;;;;10.75;4.88;;;;;;;2.71;100.00;93909.50;4968283;28;20050;-76
2023/01/09 03:23:04;;;;;;;8.60;4.47;;;;;;;2.66;100.00;93901.69;4990610;28;20042;-76
2023/01/09 03:25:30;;;;;;;10.48;5.07;;;;;;;2.64;100.00;93909.75;4988737;28;20519;-76
2023/01/09 03:28:02;;;;;;;8.15;4.68;;;;;;;2.62;100.00;93890.28;4974896;28;20044;-76
2023/01/09 03:30:30;;;;;;;9.73;4.95;;;;;;;2.62;100.00;93885.09;4985292;28;20507;-76
2023/01/09 03:32:56;;;;;;;8.27;4.35;;;;;;;2.63;100.00;93891.84;4973044;28;20043;-75
2023/01/09 03:35:22;;;;;;;11.70;5.13;;;;;;;2.58;100.00;93893.38;4991394;28;20053;-76
2023/01/09 03:37:48;;;;;;;11.07;4.90;;;;;;;2.64;100.00;93893.41;4989277;28;20050;-76
2023/01/09 03:40:14;;;;;;;9.07;5.10;;;;;;;2.58;100.00;93897.81;4974518;28;20459;-76
2023/01/09 03:42:39;;;;;;;10.80;4.93;;;;;;;2.53;100.00;93896.00;4988534;28;20472;-76
2023/01/09 03:45:06;;;;;;;9.43;4.78;;;;;;;2.60;100.00;93893.91;4991603;28;20038;-76
2023/01/09 03:47:31;;;;;;;10.23;5.15;;;;;;;2.60;100.00;93888.72;4974878;28;20046;-76
2023/01/09 03:49:57;;;;;;;12.57;5.55;;;;;;;2.60;100.00;93888.72;4983987;28;20485;-76
2023/01/09 03:52:22;;;;;;;12.80;5.93;;;;;;;2.62;100.00;93900.69;4989572;28;20089;-76
2023/01/09 03:54:48;;;;;;;10.95;5.53;;;;;;;2.59;100.00;93902.75;4987732;28;20049;-76
2023/01/09 03:57:13;;;;;;;12.52;5.85;;;;;;;2.44;100.00;93905.31;4990012;28;20715;-76
2023/01/09 03:59:39;;;;;;;14.73;5.72;;;;;;;2.44;100.00;93910.50;4969557;28;20555;-76
2023/01/09 04:02:05;;;;;;;12.50;6.15;;;;;;;2.47;100.00;93915.22;4989236;28;20511;-76
2023/01/09 04:04:31;;;;;;;14.77;6.57;;;;;;;2.41;100.00;93911.03;4984898;28;20046;-76
2023/01/09 04:06:56;;;;;;;13.55;5.93;;;;;;;2.41;100.00;93905.81;4990054;28;20093;-75
2023/01/09 04:09:22;;;;;;;16.15;6.80;;;;;;;2.47;100.00;93912.59;4971463;28;20452;-75
2023/01/09 04:11:47;;;;;;;11.80;5.82;;;;;;;2.45;100.00;93906.88;4980136;28;20035;-76
2023/01/09 04:14:13;;;;;;;12.38;5.95;;;;;;;2.65;100.00;93913.91;4986479;28;20578;-76
2023/01/09 04:16:39;;;;;;;12.57;5.43;;;;;;;2.76;100.00;93917.31;4986702;28;20050;-76
2023/01/09 04:19:04;;;;;;;27.52;6.55;;;;;;;2.84;100.00;93924.56;4989777;28;20046;-76
2023/01/09 04:21:30;;;;;;;11.60;5.50;;;;;;;3.08;100.00;93924.84;4973383;28;20035;-76
2023/01/09 04:23:55;;;;;;;11.13;5.28;;;;;;;3.33;100.00;93925.09;4990040;28;20516;-76
2023/01/09 04:26:21;;;;;;;11.75;5.25;;;;;;;3.40;100.00;93936.00;4970331;28;20042;-76
2023/01/09 04:28:46;;;;;;;13.93;5.18;;;;;;;3.43;100.00;93940.66;4989788;28;20039;-75
2023/01/09 04:31:12;;;;;;;19.40;5.45;;;;;;;3.46;100.00;93945.34;4973631;28;20182;-76
2023/01/09 04:33:38;;;;;;;11.90;5.72;;;;;;;3.47;100.00;93941.72;4982669;28;20069;-76
2023/01/09 04:36:03;;;;;;;12.15;5.32;;;;;;;3.54;100.00;93942.22;4988080;28;20042;-76
2023/01/09 04:38:29;;;;;;;10.27;4.78;;;;;;;3.55;100.00;93943.78;4986396;28;20038;-76
2023/01/09 04:40:55;;;;;;;11.90;5.30;;;;;;;3.57;100.00;93954.69;4990776;28;20038;-76
2023/01/09 04:43:20;;;;;;;14.85;4.90;;;;;;;3.63;100.00;93965.88;4988885;28;20543;-76
2023/01/09 04:45:46;;;;;;;12.35;5.20;;;;;;;3.60;100.00;93967.16;4964188;28;20105;-76
2023/01/09 04:48:11;;;;;;;11.88;5.30;;;;;;;3.62;100.00;93972.91;4987860;28;20046;-76
2023/01/09 04:50:37;;;;;;;11.43;4.72;;;;;;;3.69;100.00;93970.00;4991316;28;20038;-76
2023/01/09 04:53:02;;;;;;;15.50;5.22;;;;;;;3.78;100.00;93984.06;4979455;28;20038;-76
2023/01/09 04:55:28;;;;;;;11.73;4.68;;;;;;;3.83;100.00;93985.88;4980788;28;20096;-76
2023/01/09 04:57:53;;;;;;;9.52;4.30;;;;;;;3.90;100.00;94001.97;4966368;28;20564;-76
2023/01/09 05:00:19;;;;;;;17.55;4.28;;;;;;;3.90;100.00;93999.38;4985604;28;20042;-76
2023/01/09 05:02:45;;;;;;;12.55;4.25;;;;;;;4.04;100.00;93996.22;4991661;28;20125;-76
2023/01/09 05:05:10;;;;;;;10.57;3.25;;;;;;;4.20;100.00;93995.13;4990097;28;20420;-76
2023/01/09 05:07:36;;;;;;;5.90;3.17;;;;;;;4.41;100.00;94010.66;4972070;28;20042;-76
2023/01/09 05:10:03;;;;;;;6.60;2.60;;;;;;;4.51;100.00;94021.03;4979011;28;20045;-75
2023/01/09 05:12:28;;;;;;;5.85;2.67;;;;;;;4.61;100.00;94021.03;4980974;28;20556;-76
2023/01/09 05:14:54;;;;;;;5.90;1.90;;;;;;;4.83;100.00;94032.91;4990402;28;20045;-76
2023/01/09 05:17:20;;;;;;;4.28;1.70;;;;;;;4.84;100.00;94034.44;4988158;28;20050;-76
2023/01/09 05:19:45;;;;;;;3.13;1.60;;;;;;;4.96;100.00;94042.72;4985371;28;20556;-76
2023/01/09 05:22:12;;;;;;;4.78;1.80;;;;;;;5.15;100.00;94055.13;4984059;28;20073;-76
2023/01/09 05:24:37;;;;;;;1.45;0.90;;;;;;;5.12;100.00;94050.47;4969170;28;20034;-75
2023/01/09 05:27:03;;;;;;;3.95;1.20;;;;;;;5.48;100.00;94071.09;4990667;28;20094;-76
2023/01/09 05:29:28;;;;;;;0.82;0.82;;;;;;;5.43;100.00;94076.34;4973060;28;20053;-76
2023/01/09 05:31:54;;;;;;;1.95;0.77;;;;;;;5.52;100.00;94079.94;4975111;28;20054;-76
2023/01/09 05:34:20;;;;;;;1.15;0.82;;;;;;;5.53;100.00;94086.69;4977506;28;20042;-76
2023/01/09 05:36:45;;;;;;;1.42;0.80;;;;;;;5.58;100.00;94115.38;4964252;28;20066;-76
2023/01/09 05:39:11;;;;;;;1.85;0.60;;;;;;;5.62;100.00;94100.75;4968512;28;20046;-76
2023/01/09 05:41:37;;;;;;;0.50;0.50;;;;;;;5.64;100.00;94118.75;4988775;28;20085;-76
2023/01/09 05:44:03;;;;;;;0.50;0.50;;;;;;;5.56;100.00;94112.28;4984003;28;20042;-76
2023/01/09 05:46:30;;;;;;;0.88;0.45;;;;;;;5.58;100.00;94125.81;4977280;28;20116;-77
2023/01/09 05:48:56;;;;;;;0.63;0.50;;;;;;;5.65;100.00;94131.50;4983321;28;20117;-76
2023/01/09 05:51:22;;;;;;;0.32;0.32;;;;;;;5.51;100.00;94120.13;4978306;28;20050;-77
2023/01/09 05:53:47;;;;;;;0.32;0.32;;;;;;;5.48;100.00;94136.34;4982911;28;20039;-76
2023/01/09 05:56:14;;;;;;;1.15;0.43;;;;;;;5.49;100.00;94123.00;4984990;28;20133;-75
2023/01/09 05:58:39;;;;;;;0.50;0.50;;;;;;;5.54;100.00;94119.59;4990714;28;20038;-76
2023/01/09 06:01:05;;;;;;;0.65;0.40;;;;;;;5.52;100.00;94121.69;4985131;28;20034;-75
2023/01/09 06:03:31;;;;;;;0.50;0.50;;;;;;;5.46;100.00;94143.63;4973103;28;20097;-76
2023/01/09 06:05:56;;;;;;;0.20;0.20;;;;;;;5.46;100.00;94138.41;4986877;28;20121;-76
2023/01/09 06:08:22;;;;;;;0.75;0.40;;;;;;;5.45;100.00;94129.03;4987385;28;20095;-76
2023/01/09 06:10:47;;;;;;;0.60;0.45;;;;;;;5.45;100.00;94118.63;4969677;28;20063;-76
2023/01/09 06:13:13;;;;;;;0.90;0.60;;;;;;;5.42;100.00;94132.97;4961742;28;20046;-76
2023/01/09 06:15:39;;;;;;;0.13;0.10;;;;;;;5.38;100.00;94132.72;4986311;28;20117;-75
2023/01/09 06:18:04;;;;;;;0.65;0.63;;;;;;;5.38;100.00;94135.31;4979960;28;20062;-77
2023/01/09 06:20:31;;;;;;;0.45;0.45;;;;;;;5.33;100.00;94145.81;4982528;28;20045;-77
2023/01/09 06:22:57;;;;;;;0.52;0.52;;;;;;;5.29;100.00;94139.56;4990531;28;20038;-77
2023/01/09 06:25:22;;;;;;;0.80;0.50;;;;;;;5.25;100.00;94143.75;4987393;28;20045;-77
2023/01/09 06:27:48;;;;;;;0.25;0.20;;;;;;;5.32;100.00;94154.66;4971585;28;20041;-77
2023/01/09 06:30:14;;;;;;;0.45;0.38;;;;;;;5.33;100.00;94171.88;4977165;28;20055;-76
2023/01/09 06:32:40;;;;;;;0.50;0.35;;;;;;;5.36;100.00;94166.13;4982261;28;20050;-76
2023/01/09 06:35:06;;;;;;;0.10;0.10;;;;;;;5.35;100.00;94179.44;4965661;28;20035;-76
2023/01/09 06:37:32;;;;;;;0.57;0.35;;;;;;;5.27;100.00;94172.19;4981715;28;20109;-76
2023/01/09 06:39:58;;;;;;;0.82;0.60;;;;;;;5.25;100.00;94190.69;4965909;28;20046;-76
2023/01/09 06:42:23;;;;;;;0.38;0.38;;;;;;;5.26;100.00;94181.84;4957853;28;20094;-75
2023/01/09 06:44:49;;;;;;;0.52;0.43;;;;;;;5.16;100.00;94194.94;4982183;28;20042;-77
2023/01/09 06:47:14;;;;;;;0.73;0.40;;;;;;;5.19;100.00;94199.59;4973731;28;20046;-76
2023/01/09 06:49:40;;;;;;;1.00;0.38;;;;;;;5.10;100.00;94204.59;4984808;28;20121;-77
2023/01/09 06:52:06;;;;;;;1.55;0.40;;;;;;;5.15;100.00;94206.41;4983508;28;20122;-76
2023/01/09 06:54:33;;;;;;;0.85;0.50;;;;;;;5.15;100.00;94216.81;4989818;28;20500;-76
2023/01/09 06:56:58;;;;;;;1.05;0.32;;;;;;;5.09;100.00;94204.88;4974094;28;20075;-77
2023/01/09 06:59:24;;;;;;;1.42;0.65;;;;;;;5.06;100.00;94214.00;4965033;28;20126;-76
2023/01/09 07:01:50;;;;;;;2.53;0.60;;;;;;;5.05;100.00;94206.44;4966654;28;20041;-76
2023/01/09 07:04:16;;;;;;;1.30;0.55;;;;;;;5.05;100.00;94206.44;4986821;28;20489;-76
2023/01/09 07:06:42;;;;;;;0.98;0.57;;;;;;;5.02;100.00;94218.94;4973005;28;20038;-78
2023/01/09 07:09:12;;;;;;;0.90;0.68;;;;;;;5.07;100.00;94225.19;4981093;28;20519;-77
2023/01/09 07:11:38;;;;;;;1.55;0.70;;;;;;;4.99;100.00;94235.13;4989477;28;20117;-76
2023/01/09 07:14:04;;;;;;;0.55;0.55;;;;;;;4.91;100.00;94233.06;4989380;28;20417;-77
2023/01/09 07:16:29;;;;;;;0.93;0.70;;;;;;;4.93;100.00;94230.19;4987834;28;20046;-76
2023/01/09 07:18:55;;;;;;;0.70;0.70;;;;;;;4.90;100.00;94241.94;4965212;28;20632;-77
2023/01/09 07:21:21;;;;;;;1.45;0.60;;;;;;;4.90;100.00;94247.16;4968109;28;20515;-77
2023/01/09 07:23:46;;;;;;;0.65;0.55;;;;;;;4.89;100.00;94240.38;4962787;28;20030;-77
2023/01/09 07:26:12;;;;;;;1.08;0.68;;;;;;;4.95;100.00;94249.72;4966514;28;20522;-77
2023/01/09 07:28:38;;;;;;;1.45;0.75;;;;;;;4.94;100.00;94237.75;4966091;28;20519;-77
2023/01/09 07:31:06;;;;;;;0.80;0.60;;;;;;;4.93;100.00;94257.03;4987087;28;20043;-78
2023/01/09 07:33:32;;;;;;;0.98;0.60;;;;;;;4.90;100.00;94273.22;4996222;28;20404;-76
2023/01/09 07:35:58;;;;;;;1.83;0.57;;;;;;;4.91;100.00;94282.56;4985625;28;20049;-78
2023/01/09 07:38:24;;;;;;;3.40;0.77;;;;;;;4.94;100.00;94268.25;4980778;28;20046;-78
2023/01/09 07:40:49;;;;;;;0.28;0.28;;;;;;;4.85;100.00;94275.81;4977651;28;20057;-78
2023/01/09 07:43:15;;;;;;;1.00;0.63;;;;;;;4.96;100.00;94282.59;4993280;28;20060;-76
2023/01/09 07:45:41;;;;;;;0.47;0.47;;;;;;;4.94;100.00;94296.91;4967325;28;20034;-77
2023/01/09 07:48:06;;;;;;;0.85;0.60;;;;;;;4.85;100.00;94291.47;4967265;28;20109;-76
2023/01/09 07:50:32;;;;;;;0.52;0.52;;;;;;;4.81;100.00;94303.44;4962854;28;20124;-76
2023/01/09 07:52:57;;;;;;;1.15;0.47;;;;;;;4.85;100.00;94301.88;4964896;28;20271;-77
2023/01/09 07:55:23;;;;;;;1.20;0.50;;;;;;;4.82;100.00;94308.41;4992398;28;20045;-75
2023/01/09 07:57:50;;;;;;;1.80;0.63;;;;;;;4.77;100.00;94315.44;4965635;28;20078;-75
2023/01/09 08:00:16;;;;;;;0.70;0.70;;;;;;;4.81;100.00;94316.50;4992049;28;20061;-76
2023/01/09 08:02:42;;;;;;;0.60;0.52;;;;;;;4.75;100.00;94309.72;4968521;28;20042;-75
2023/01/09 08:05:13;;;;;;;0.57;0.57;;;;;;;4.77;100.00;94320.66;4997669;28;20117;-76
2023/01/09 08:07:40;;;;;;;0.90;0.60;;;;;;;4.81;100.00;94326.91;4976371;28;20039;-75
2023/01/09 08:10:06;;;;;;;0.98;0.50;;;;;;;4.85;100.00;94327.97;4998829;28;20042;-76
2023/01/09 08:12:31;;;;;;;0.85;0.55;;;;;;;4.79;100.00;94324.56;4975673;28;20533;-77
2023/01/09 08:14:58;;;;;;;1.13;0.57;;;;;;;4.76;100.00;94324.31;4997818;28;20553;-77
2023/01/09 08:17:23;;;;;;;0.77;0.73;;;;;;;4.74;100.00;94336.81;4961060;28;20047;-77
2023/01/09 08:19:49;;;;;;;1.42;0.50;;;;;;;4.78;100.00;94337.88;4980912;28;20049;-77
2023/01/09 08:22:14;;;;;;;3.28;0.68;;;;;;;4.72;100.00;94344.91;4963632;28;20046;-76
2023/01/09 08:24:40;;;;;;;1.00;0.60;;;;;;;4.68;100.00;94357.69;4991479;28;20046;-75
2023/01/09 08:27:06;;;;;;;0.50;0.35;;;;;;;4.76;100.00;94350.38;4988977;28;20042;-76
2023/01/09 08:29:31;;;;;;;0.90;0.70;;;;;;;4.73;100.00;94356.13;4985866;28;20475;-76
2023/01/09 08:31:57;;;;;;;0.82;0.65;;;;;;;4.71;100.00;94352.97;4982656;28;20314;-77
2023/01/09 08:34:22;;;;;;;0.52;0.52;;;;;;;4.67;100.00;94358.72;4983720;28;20497;-75
2023/01/09 08:36:48;;;;;;;0.73;0.60;;;;;;;4.62;100.00;94358.69;4984980;28;20497;-75
2023/01/09 08:39:13;;;;;;;1.52;0.70;;;;;;;4.66;100.00;94372.00;4990666;28;20042;-75
2023/01/09 08:47:08;;;;;;;0.20;0.20;;;;;;;4.60;100.00;94392.06;4981382;28;20070;-76
2023/01/09 08:49:38;;;;;;;0.40;0.40;;;;;;;4.54;100.00;94390.50;4983155;28;20080;-78
2023/01/09 08:52:05;;;;;;;0.52;0.40;;;;;;;4.56;100.00;94393.63;4982758;28;20244;-76
2023/01/09 08:54:30;;;;;;;1.58;0.60;;;;;;;4.57;100.00;94384.78;4989697;28;20504;-77
2023/01/09 08:56:56;;;;;;;0.20;0.20;;;;;;;4.54;100.00;94389.69;4993485;28;20042;-77
2023/01/09 08:59:22;;;;;;;2.03;0.93;;;;;;;4.47;100.00;94379.53;4991799;28;20043;-78
2023/01/09 09:01:48;;;;;;;0.47;0.45;;;;;;;4.62;100.00;94399.63;4991688;28;20042;-77
2023/01/09 09:04:13;;;;;;;1.95;0.90;;;;;;;4.50;100.00;94389.44;4984151;28;20051;-78
2023/01/09 09:06:39;;;;;;;1.00;0.50;;;;;;;4.58;100.00;94396.75;4989733;28;20050;-76
2023/01/09 09:09:05;;;;;;;5.53;0.73;;;;;;;4.61;100.00;94396.25;4981511;28;20038;-77
2023/01/09 09:11:32;;;;;;;1.05;0.30;;;;;;;4.56;100.00;94385.81;4978520;28;20065;-76
2023/01/09 09:13:58;;;;;;;2.50;0.52;;;;;;;4.54;100.00;94393.09;4987533;28;20133;-78
2023/01/09 09:16:25;;;;;;;0.55;0.43;;;;;;;4.60;100.00;94392.06;4988743;28;20049;-77
2023/01/09 09:18:51;;;;;;;3.97;0.68;;;;;;;4.55;100.00;94401.69;4989881;28;20042;-76
2023/01/09 09:21:17;;;;;;;1.35;0.57;;;;;;;4.47;100.00;94405.59;4986008;28;20042;-77
2023/01/09 09:23:45;;;;;;;2.30;0.65;;;;;;;4.45;100.00;94397.25;4985715;28;20547;-76
2023/01/09 09:26:11;;;;;;;3.30;0.55;;;;;;;4.42;100.00;94397.75;4969265;28;20042;-77
2023/01/09 09:28:36;;;;;;;0.30;0.30;;;;;;;4.53;100.00;94399.34;4988216;28;20042;-78
2023/01/09 09:31:06;;;;;;;3.15;0.50;;;;;;;4.51;100.00;94409.22;4971622;28;20421;-76
2023/01/09 09:33:32;;;;;;;0.60;0.50;;;;;;;4.55;100.00;94407.69;4994935;28;20038;-78
2023/01/09 09:35:58;;;;;;;3.83;0.55;;;;;;;4.56;100.00;94409.25;4983731;28;20057;-76
2023/01/09 09:38:24;;;;;;;6.40;0.70;;;;;;;4.59;100.00;94418.38;4990558;28;20134;-77
2023/01/09 09:41:02;;;;;;;3.40;0.43;;;;;;;4.69;100.00;94419.16;4996056;28;20069;-76
2023/01/09 09:46:50;;;;;;;;;;;;;;;4.67;100.00;94421.25;4975191;28;20042;-76
2023/01/09 09:49:26;;;;;;;0.73;0.50;;;;;;;4.68;100.00;94417.63;4977200;28;20396;-77
2023/01/09 09:52:14;;;;;;;1.08;0.50;;;;;;;4.64;100.00;94406.16;4956851;28;20050;-76
2023/01/09 09:54:45;;;;;;;2.70;0.60;;;;;;;4.78;100.00;94418.66;4977705;28;20110;-75
2023/01/09 09:57:20;;;;;;;4.57;0.50;;;;;;;4.68;100.00;94416.81;4990036;28;20038;-77
2023/01/09 09:59:50;;;;;;;1.00;0.60;;;;;;;4.64;100.00;94406.16;4958874;28;20094;-77
2023/01/09 10:02:49;;;;;;;1.10;0.50;;;;;;;4.71;100.00;94416.31;4978130;28;20054;-77
2023/01/09 10:05:30;;;;;;;1.38;0.55;;;;;;;4.64;100.00;94400.94;4963526;28;20051;-75
2023/01/09 10:08:03;;;;;;;0.88;0.57;;;;;;;4.69;100.00;94395.72;4967587;28;20038;-76
2023/01/09 10:10:34;;;;;;;2.78;0.60;;;;;;;4.74;100.00;94400.16;4963951;28;20515;-76
2023/01/09 10:14:03;;;;;;;2.53;0.60;;;;;;;4.74;100.00;94407.19;4969240;28;20609;-76
2023/01/09 10:16:06;;;;;;;3.35;0.65;;;;;;;4.78;100.00;94400.41;4970338;28;20122;-75
2023/01/09 10:19:05;;;;;;;1.67;0.55;;;;;;;4.80;100.00;94387.94;4954261;28;20038;-76
2023/01/09 10:21:42;;;;;;;4.50;0.55;;;;;;;4.81;100.00;94384.25;4972452;28;20043;-76
2023/01/09 10:24:19;;;;;;;0.90;0.40;;;;;;;4.85;100.00;94380.09;4969232;28;20089;-76
2023/01/09 10:26:51;;;;;;;0.75;0.50;;;;;;;4.89;100.00;94381.13;4971021;28;20050;-76
2023/01/09 10:29:28;;;;;;;2.30;0.77;;;;;;;4.90;100.00;94382.72;4978951;28;20042;-72
2023/01/09 10:32:10;;;;;;;3.03;0.50;;;;;;;5.05;100.00;94386.34;4981165;28;20077;-72
2023/01/09 10:34:52;;;;;;;1.63;0.50;;;;;;;5.01;100.00;94389.50;4988609;28;20097;-76
2023/01/09 10:37:23;;;;;;;3.08;0.63;;;;;;;4.99;100.00;94382.97;4973331;28;20047;-76
2023/01/09 10:40:04;;;;;;;0.65;0.45;;;;;;;5.01;100.00;94394.72;4970192;28;20035;-75
2023/01/09 10:42:41;;;;;;;0.98;0.30;;;;;;;5.07;100.00;94392.88;4975346;28;20472;-76
2023/01/09 10:45:23;;;;;;;1.67;0.80;;;;;;;5.14;100.00;94397.81;4970466;28;20046;-75
2023/01/09 10:47:48;;;;;;;3.00;0.63;;;;;;;5.16;100.00;94390.53;4984303;28;20045;-76
2023/01/09 10:50:33;;;;;;;4.18;0.90;;;;;;;5.26;100.00;94394.94;4988682;28;20054;-76
2023/01/09 10:53:01;;;;;;;2.60;0.60;;;;;;;5.22;100.00;94379.03;4979647;28;20073;-76
2023/01/09 10:55:39;;;;;;;1.75;0.70;;;;;;;5.25;100.00;94386.34;4965055;28;20049;-76
2023/01/09 10:58:13;;;;;;;2.13;0.85;;;;;;;5.35;100.00;94388.16;4994920;28;20053;-75
2023/01/09 11:00:39;;;;;;;3.13;0.55;;;;;;;5.29;100.00;94371.72;4991195;28;20513;-76
2023/01/09 11:03:12;;;;;;;2.63;0.65;;;;;;;5.20;100.00;94379.31;4983443;28;20419;-76
2023/01/09 11:05:37;;;;;;;2.70;0.77;;;;;;;5.26;100.00;94385.28;4989910;28;20030;-75
2023/01/09 11:08:12;;;;;;;1.90;0.55;;;;;;;5.35;100.00;94393.38;4991539;28;20042;-76
2023/01/09 11:10:50;;;;;;;2.72;0.85;;;;;;;5.29;100.00;94378.78;4988567;28;20038;-75
2023/01/09 11:13:20;;;;;;;1.90;0.60;;;;;;;5.34;100.00;94376.94;4967494;28;20544;-74
2023/01/09 11:15:59;;;;;;;1.90;0.70;;;;;;;5.30;100.00;94370.69;4985953;28;20089;-76
2023/01/09 11:18:25;;;;;;;3.05;0.63;;;;;;;5.30;100.00;94386.34;4991473;28;20058;-76
2023/01/09 11:20:51;;;;;;;2.05;1.08;;;;;;;5.28;100.00;94379.81;4992929;28;20038;-76
2023/01/09 11:23:32;;;;;;;2.67;0.50;;;;;;;5.30;100.00;94386.34;4978459;28;20497;-75
2023/01/09 11:26:01;;;;;;;2.17;0.80;;;;;;;5.29;100.00;94376.94;4987200;28;20039;-74
2023/01/09 11:28:27;;;;;;;3.80;0.70;;;;;;;5.32;100.00;94383.47;4985352;28;20046;-73
2023/01/09 11:31:00;;;;;;;0.98;0.43;;;;;;;5.35;100.00;94383.72;4987760;28;20122;-76
2023/01/09 11:33:37;;;;;;;4.10;0.63;;;;;;;5.49;100.00;94398.84;4968377;28;20066;-77
2023/01/09 11:36:09;;;;;;;2.88;0.80;;;;;;;5.45;98.52;94374.31;4974971;28;20038;-77
2023/01/09 11:39:04;;;;;;;4.32;1.13;;;;;;;5.49;100.00;94380.56;4983590;28;20053;-76
2023/01/09 11:41:33;;;;;;;;;;;;;;;5.41;97.83;94391.53;4973834;28;20673;-75
2023/01/09 11:44:00;;;;;;;3.55;0.88;;;;;;;5.41;98.07;94378.50;4969990;28;19922;-75
2023/01/09 11:46:38;;;;;;;2.58;0.68;;;;;;;5.53;100.00;94384.19;4980487;28;20524;-75
2023/01/09 11:49:19;;;;;;;4.35;1.02;;;;;;;5.56;98.75;94378.47;4986486;28;20068;-78
2023/01/09 11:51:45;;;;;;;5.07;1.85;;;;;;;5.48;99.05;94368.56;4968136;28;20132;-76